createdAt,value
2023-01-12T00:00:44.017Z,100.00
2023-01-12T00:02:47.211Z,100.00
2023-01-12T00:04:51.260Z,100.00
2023-01-12T00:06:54.073Z,100.00
2023-01-12T00:08:56.711Z,100.00
2023-01-12T00:10:59.392Z,100.00
2023-01-12T00:13:02.045Z,100.00
2023-01-12T00:15:05.219Z,100.00
2023-01-12T00:17:09.072Z,100.00
2023-01-12T00:19:13.619Z,100.00
2023-01-12T00:21:18.544Z,100.00
2023-01-12T00:23:23.032Z,100.00
2023-01-12T00:25:25.714Z,100.00
2023-01-12T00:27:28.393Z,100.00
2023-01-12T00:29:31.569Z,100.00
2023-01-12T00:31:34.363Z,100.00
2023-01-12T00:33:37.826Z,100.00
2023-01-12T00:35:40.513Z,100.00
2023-01-12T00:37:44.473Z,100.00
2023-01-12T00:40:00.837Z,100.00
2023-01-12T00:42:22.823Z,100.00
2023-01-12T00:44:43.629Z,100.00
2023-01-12T00:46:46.236Z,100.00
2023-01-12T00:48:48.959Z,100.00
2023-01-12T00:50:51.606Z,100.00
2023-01-12T00:52:55.656Z,100.00
2023-01-12T00:54:58.657Z,100.00
2023-01-12T00:57:01.382Z,100.00
2023-01-12T00:59:05.010Z,100.00
2023-01-12T01:01:09.130Z,100.00
2023-01-12T01:03:11.967Z,100.00
2023-01-12T01:05:14.676Z,100.00
2023-01-12T01:07:18.384Z,100.00
2023-01-12T01:09:22.756Z,100.00
2023-01-12T01:11:25.481Z,100.00
2023-01-12T01:13:28.136Z,100.00
2023-01-12T01:15:30.932Z,100.00
2023-01-12T01:17:33.610Z,100.00
2023-01-12T01:19:36.806Z,100.00
2023-01-12T01:21:39.650Z,100.00
2023-01-12T01:23:43.676Z,100.00
2023-01-12T01:25:47.673Z,100.00
2023-01-12T01:27:50.317Z,100.00
2023-01-12T01:29:53.029Z,100.00
2023-01-12T01:31:56.115Z,100.00
2023-01-12T01:33:58.718Z,100.00
2023-01-12T01:36:01.641Z,100.00
2023-01-12T01:38:04.704Z,100.00
2023-01-12T01:40:08.725Z,100.00
2023-01-12T01:42:27.788Z,100.00
2023-01-12T01:44:53.585Z,100.00
2023-01-12T01:46:59.962Z,100.00
2023-01-12T01:49:10.673Z,100.00
2023-01-12T01:51:16.982Z,100.00
2023-01-12T01:53:24.415Z,100.00
2023-01-12T01:55:33.989Z,100.00
2023-01-12T01:57:47.493Z,100.00
2023-01-12T01:59:54.997Z,100.00
2023-01-12T02:01:58.196Z,100.00
2023-01-12T02:04:01.796Z,100.00
2023-01-12T02:06:07.622Z,100.00
2023-01-12T02:08:20.774Z,100.00
2023-01-12T02:10:23.581Z,100.00
2023-01-12T02:12:52.195Z,100.00
2023-01-12T02:15:14.204Z,100.00
2023-01-12T02:17:43.716Z,100.00
2023-01-12T02:20:19.506Z,100.00
2023-01-12T02:22:45.484Z,100.00
2023-01-12T02:25:16.896Z,100.00
2023-01-12T02:27:41.445Z,100.00
2023-01-12T02:30:20.560Z,100.00
2023-01-12T02:32:32.792Z,100.00
2023-01-12T02:34:43.417Z,100.00
2023-01-12T02:36:54.125Z,100.00
2023-01-12T02:39:03.120Z,100.00
2023-01-12T02:41:15.115Z,100.00
2023-01-12T02:43:24.669Z,100.00
2023-01-12T02:45:37.913Z,100.00
2023-01-12T02:47:48.231Z,100.00
2023-01-12T02:49:55.810Z,100.00
2023-01-12T02:52:01.642Z,99.66
2023-01-12T02:54:06.527Z,99.69
2023-01-12T02:56:09.433Z,98.98
2023-01-12T02:58:15.258Z,98.99
2023-01-12T03:00:19.580Z,98.64
2023-01-12T03:02:24.965Z,99.17
2023-01-12T03:04:30.046Z,99.11
2023-01-12T03:06:42.441Z,100.00
2023-01-12T03:08:47.195Z,100.00
2023-01-12T03:10:59.435Z,100.00
2023-01-12T03:13:07.530Z,100.00
2023-01-12T03:15:12.478Z,100.00
2023-01-12T03:17:23.428Z,100.00
2023-01-12T03:19:32.185Z,100.00
2023-01-12T03:21:37.717Z,100.00
2023-01-12T03:23:45.755Z,100.00
2023-01-12T03:25:51.489Z,100.00
2023-01-12T03:27:57.328Z,100.00
2023-01-12T03:30:03.809Z,100.00
2023-01-12T03:32:07.830Z,100.00
2023-01-12T03:34:11.119Z,100.00
2023-01-12T03:36:20.691Z,100.00
2023-01-12T03:38:28.250Z,99.88
2023-01-12T03:40:36.866Z,99.52
2023-01-12T03:42:46.753Z,100.00
2023-01-12T03:44:57.794Z,100.00
2023-01-12T03:47:05.252Z,100.00
2023-01-12T03:49:16.400Z,100.00
2023-01-12T03:51:24.517Z,100.00
2023-01-12T03:53:28.674Z,100.00
2023-01-12T03:55:33.717Z,100.00
2023-01-12T03:57:38.208Z,100.00
2023-01-12T03:59:41.414Z,100.00
2023-01-12T04:01:44.173Z,100.00
2023-01-12T04:03:48.015Z,100.00
2023-01-12T04:05:50.674Z,100.00
2023-01-12T04:07:54.661Z,100.00
2023-01-12T04:09:57.637Z,100.00
2023-01-12T04:12:11.647Z,100.00
2023-01-12T04:14:14.288Z,100.00
2023-01-12T04:16:17.093Z,100.00
2023-01-12T04:18:19.695Z,100.00
2023-01-12T04:20:22.609Z,100.00
2023-01-12T04:22:42.931Z,100.00
2023-01-12T04:24:48.516Z,100.00
2023-01-12T04:26:51.131Z,100.00
2023-01-12T04:28:53.809Z,100.00
2023-01-12T04:30:56.388Z,100.00
2023-01-12T04:32:59.637Z,100.00
2023-01-12T04:35:02.278Z,100.00
2023-01-12T04:37:05.039Z,100.00
2023-01-12T04:39:07.641Z,100.00
2023-01-12T04:41:11.645Z,100.00
2023-01-12T04:43:14.380Z,100.00
2023-01-12T04:45:17.545Z,100.00
2023-01-12T04:47:20.272Z,100.00
2023-01-12T04:49:22.980Z,100.00
2023-01-12T04:51:25.892Z,100.00
2023-01-12T04:53:28.989Z,100.00
2023-01-12T04:55:31.717Z,100.00
2023-01-12T04:57:36.197Z,100.00
2023-01-12T04:59:38.865Z,100.00
2023-01-12T05:01:41.640Z,100.00
2023-01-12T05:03:45.432Z,100.00
2023-01-12T05:05:48.160Z,100.00
2023-01-12T05:08:04.671Z,100.00
2023-01-12T05:10:26.355Z,100.00
2023-01-12T05:12:29.064Z,100.00
2023-01-12T05:14:33.148Z,100.00
2023-01-12T05:16:35.824Z,100.00
2023-01-12T05:18:38.463Z,100.00
2023-01-12T05:20:41.101Z,100.00
2023-01-12T05:22:43.752Z,100.00
2023-01-12T05:24:46.428Z,100.00
2023-01-12T05:26:49.121Z,100.00
2023-01-12T05:28:52.318Z,100.00
2023-01-12T05:30:56.862Z,99.66
2023-01-12T05:32:59.888Z,99.42
2023-01-12T05:35:02.451Z,100.00
2023-01-12T05:37:05.083Z,98.78
2023-01-12T05:39:07.775Z,98.61
2023-01-12T05:41:13.106Z,99.28
2023-01-12T05:43:33.442Z,99.15
2023-01-12T05:45:36.252Z,98.90
2023-01-12T05:47:40.268Z,98.05
2023-01-12T05:49:42.975Z,98.58
2023-01-12T05:51:45.565Z,98.42
2023-01-12T05:53:48.891Z,98.59
2023-01-12T05:55:51.540Z,98.66
2023-01-12T05:57:54.191Z,98.70
2023-01-12T05:59:56.975Z,98.44
2023-01-12T06:01:59.814Z,98.71
2023-01-12T06:04:04.056Z,98.44
2023-01-12T06:06:07.271Z,98.66
2023-01-12T06:08:09.945Z,98.79
2023-01-12T06:10:13.654Z,98.17
2023-01-12T06:12:33.847Z,97.43
2023-01-12T06:14:36.620Z,97.44
2023-01-12T06:16:40.887Z,97.93
2023-01-12T06:18:43.610Z,97.90
2023-01-12T06:20:47.718Z,98.32
2023-01-12T06:22:50.324Z,98.57
2023-01-12T06:24:53.775Z,98.05
2023-01-12T06:26:56.714Z,97.60
2023-01-12T06:28:59.361Z,97.76
2023-01-12T06:31:04.784Z,98.31
2023-01-12T06:33:07.465Z,98.11
2023-01-12T06:35:19.111Z,98.32
2023-01-12T06:37:23.837Z,98.17
2023-01-12T06:39:26.465Z,98.31
2023-01-12T06:41:46.491Z,97.71
2023-01-12T06:43:49.206Z,98.56
2023-01-12T06:45:54.336Z,99.23
2023-01-12T06:47:57.285Z,98.79
2023-01-12T06:50:00.120Z,98.85
2023-01-12T06:52:02.964Z,98.61
2023-01-12T06:54:07.028Z,98.74
2023-01-12T06:56:09.721Z,98.78
2023-01-12T06:58:12.335Z,98.81
2023-01-12T07:00:16.073Z,98.19
2023-01-12T07:02:18.877Z,98.51
2023-01-12T07:04:21.788Z,99.08
2023-01-12T07:06:24.564Z,99.42
2023-01-12T07:08:27.808Z,99.23
2023-01-12T07:10:33.023Z,98.60
2023-01-12T07:12:35.687Z,97.60
2023-01-12T07:14:38.306Z,96.64
2023-01-12T07:16:41.081Z,96.11
2023-01-12T07:18:43.947Z,94.67
2023-01-12T07:20:48.618Z,94.42
2023-01-12T07:22:51.313Z,94.76
2023-01-12T07:24:54.815Z,93.75
2023-01-12T07:27:01.281Z,93.36
2023-01-12T07:29:04.565Z,93.67
2023-01-12T07:31:09.148Z,93.50
2023-01-12T07:33:13.404Z,92.58
2023-01-12T07:35:16.607Z,92.19
2023-01-12T07:37:19.287Z,91.83
2023-01-12T07:39:21.987Z,92.05
2023-01-12T07:41:42.270Z,92.07
2023-01-12T07:43:46.401Z,91.80
2023-01-12T07:45:49.112Z,91.95
2023-01-12T07:47:54.158Z,91.90
2023-01-12T07:49:56.859Z,92.22
2023-01-12T07:51:59.767Z,92.74
2023-01-12T07:54:02.462Z,92.66
2023-01-12T07:56:05.149Z,92.09
2023-01-12T07:58:08.734Z,91.13
2023-01-12T08:00:14.497Z,91.33
2023-01-12T08:02:17.276Z,91.24
2023-01-12T08:04:20.010Z,91.38
2023-01-12T08:06:22.643Z,91.06
2023-01-12T08:08:25.304Z,90.82
2023-01-12T08:10:28.259Z,90.28
2023-01-12T08:12:31.255Z,90.40
2023-01-12T08:14:38.027Z,90.44
2023-01-12T08:16:45.414Z,89.97
2023-01-12T08:18:53.243Z,90.67
2023-01-12T08:21:00.645Z,89.88
2023-01-12T08:23:09.866Z,90.41
2023-01-12T08:25:16.677Z,89.70
2023-01-12T08:27:24.830Z,90.15
2023-01-12T08:29:32.743Z,90.03
2023-01-12T08:31:35.499Z,89.45
2023-01-12T08:33:39.852Z,90.61
2023-01-12T08:35:43.053Z,90.52
2023-01-12T08:37:45.918Z,90.52
2023-01-12T08:39:49.463Z,90.61
2023-01-12T08:41:52.090Z,90.20
2023-01-12T08:44:03.447Z,90.18
2023-01-12T08:46:08.885Z,90.45
2023-01-12T08:48:11.567Z,90.70
2023-01-12T08:50:16.025Z,90.81
2023-01-12T08:52:18.836Z,91.16
2023-01-12T08:54:22.449Z,90.58
2023-01-12T08:56:25.189Z,91.39
2023-01-12T08:58:27.811Z,91.23
2023-01-12T09:00:30.566Z,90.96
2023-01-12T09:02:33.327Z,90.84
2023-01-12T09:04:39.458Z,91.22
2023-01-12T09:06:45.063Z,90.57
2023-01-12T09:08:48.408Z,90.91
2023-01-12T09:10:51.020Z,90.78
2023-01-12T09:12:53.727Z,90.84
2023-01-12T09:14:56.386Z,91.45
2023-01-12T09:16:59.076Z,91.25
2023-01-12T09:19:02.009Z,92.03
2023-01-12T09:21:06.876Z,91.51
2023-01-12T09:23:10.932Z,91.82
2023-01-12T09:25:14.960Z,91.83
2023-01-12T09:27:17.668Z,91.88
2023-01-12T09:29:20.390Z,91.83
2023-01-12T09:31:24.497Z,91.33
2023-01-12T09:33:27.552Z,91.78
2023-01-12T09:35:30.174Z,91.68
2023-01-12T09:37:32.860Z,91.41
2023-01-12T09:39:36.839Z,91.38
2023-01-12T09:42:00.107Z,91.55
2023-01-12T09:44:20.592Z,91.69
2023-01-12T09:46:46.556Z,91.95
2023-01-12T09:48:49.173Z,91.66
2023-01-12T09:50:56.505Z,92.03
2023-01-12T09:53:04.121Z,91.86
2023-01-12T09:55:14.442Z,91.05
2023-01-12T09:57:56.458Z,92.21
2023-01-12T10:00:03.835Z,91.58
2023-01-12T10:02:11.645Z,91.67
2023-01-12T10:04:15.534Z,92.03
2023-01-12T10:06:20.350Z,91.05
2023-01-12T10:08:31.727Z,90.97
2023-01-12T10:10:36.138Z,90.62
2023-01-12T10:12:45.562Z,90.15
2023-01-12T10:15:19.349Z,90.41
2023-01-12T10:17:41.965Z,90.13
2023-01-12T10:19:55.836Z,90.23
2023-01-12T10:21:58.878Z,89.87
2023-01-12T10:24:01.594Z,89.68
2023-01-12T10:26:14.580Z,89.81
2023-01-12T10:28:22.760Z,89.53
2023-01-12T10:30:30.285Z,89.47
2023-01-12T10:32:41.554Z,89.33
2023-01-12T10:34:51.391Z,88.93
2023-01-12T10:36:58.810Z,88.14
2023-01-12T10:39:04.199Z,87.63
2023-01-12T10:41:16.899Z,87.55
2023-01-12T10:43:23.886Z,87.57
2023-01-12T10:45:30.128Z,86.42
2023-01-12T10:47:34.375Z,87.03
2023-01-12T10:49:38.180Z,85.95
2023-01-12T10:51:51.417Z,86.15
2023-01-12T10:53:59.830Z,86.43
2023-01-12T10:56:15.721Z,85.80
2023-01-12T10:58:22.564Z,85.54
2023-01-12T11:00:27.833Z,85.51
2023-01-12T11:02:44.328Z,85.13
2023-01-12T11:04:49.214Z,85.36
2023-01-12T11:07:04.992Z,85.33
2023-01-12T11:09:19.692Z,84.56
2023-01-12T11:11:30.895Z,84.96
2023-01-12T11:13:37.429Z,84.04
2023-01-12T11:15:54.017Z,85.09
2023-01-12T11:18:11.314Z,84.73
2023-01-12T11:20:21.242Z,85.09
2023-01-12T11:22:28.302Z,85.27
2023-01-12T11:24:41.431Z,84.92
2023-01-12T11:26:52.482Z,85.15
2023-01-12T11:29:00.640Z,84.64
2023-01-12T11:31:07.875Z,85.02
2023-01-12T11:33:14.820Z,85.85
2023-01-12T11:35:29.098Z,85.08
2023-01-12T11:37:38.627Z,85.06
2023-01-12T11:39:53.120Z,85.09
2023-01-12T11:42:17.122Z,85.53
2023-01-12T11:44:26.967Z,85.71
2023-01-12T11:46:35.687Z,85.90
2023-01-12T11:48:46.067Z,86.10
2023-01-12T11:50:50.965Z,86.36
2023-01-12T11:52:55.688Z,86.74
2023-01-12T11:54:58.446Z,86.50
2023-01-12T11:57:33.091Z,86.96
2023-01-12T11:59:46.547Z,87.07
2023-01-12T12:01:58.781Z,87.45
2023-01-12T12:04:04.107Z,87.86
2023-01-12T12:06:22.087Z,88.33
2023-01-12T12:08:40.109Z,88.38
2023-01-12T12:10:51.320Z,88.68
2023-01-12T12:13:27.816Z,88.87
2023-01-12T12:15:40.086Z,88.99
2023-01-12T12:17:52.452Z,88.50
2023-01-12T12:20:04.510Z,88.54
2023-01-12T12:22:20.850Z,88.17
2023-01-12T12:24:43.708Z,88.92
2023-01-12T12:26:53.384Z,88.69
2023-01-12T12:29:15.854Z,87.47
2023-01-12T12:31:32.703Z,87.79
2023-01-12T12:34:01.647Z,87.43
2023-01-12T12:36:17.109Z,87.55
2023-01-12T12:38:33.289Z,87.48
2023-01-12T12:41:10.695Z,87.54
2023-01-12T12:43:38.234Z,87.73
2023-01-12T12:45:50.988Z,87.57
2023-01-12T12:48:01.635Z,88.14
2023-01-12T12:50:04.939Z,87.75
2023-01-12T12:52:13.004Z,87.52
2023-01-12T12:54:18.800Z,87.35
2023-01-12T12:56:23.984Z,87.64
2023-01-12T12:58:44.825Z,87.73
2023-01-12T13:00:49.759Z,88.05
2023-01-12T13:02:58.544Z,87.95
2023-01-12T13:05:05.396Z,88.29
2023-01-12T13:07:08.229Z,88.10
2023-01-12T13:09:39.931Z,88.03
2023-01-12T13:11:53.499Z,87.91
2023-01-12T13:14:01.502Z,87.87
2023-01-12T13:16:44.909Z,88.11
2023-01-12T13:19:08.011Z,88.79
2023-01-12T13:21:29.862Z,89.41
2023-01-12T13:23:47.604Z,89.58
2023-01-12T13:25:57.524Z,89.39
2023-01-12T13:28:12.205Z,89.78
2023-01-12T13:30:40.347Z,90.39
2023-01-12T13:32:57.922Z,90.43
2023-01-12T13:35:01.982Z,90.60
2023-01-12T13:37:24.366Z,91.85
2023-01-12T13:39:27.907Z,91.31
2023-01-12T13:41:51.325Z,91.59
2023-01-12T13:43:57.475Z,92.29
2023-01-12T13:46:04.261Z,92.36
2023-01-12T13:48:08.253Z,92.91
2023-01-12T13:50:17.929Z,92.53
2023-01-12T13:52:23.671Z,92.37
2023-01-12T13:54:26.655Z,92.58
2023-01-12T13:56:29.314Z,92.77
2023-01-12T13:58:40.189Z,92.43
2023-01-12T14:00:44.346Z,93.16
2023-01-12T14:02:47.132Z,93.36
2023-01-12T14:05:01.768Z,92.33
2023-01-12T14:07:14.734Z,92.72
2023-01-12T14:09:27.058Z,93.10
2023-01-12T14:12:02.130Z,93.65
2023-01-12T14:14:39.857Z,93.26
2023-01-12T14:17:05.352Z,93.77
2023-01-12T14:19:26.870Z,94.36
2023-01-12T14:21:33.067Z,94.12
2023-01-12T14:23:37.045Z,93.92
2023-01-12T14:25:39.745Z,93.87
2023-01-12T14:27:49.849Z,94.22
2023-01-12T14:29:52.511Z,93.47
2023-01-12T14:31:55.656Z,94.10
2023-01-12T14:34:01.771Z,93.57
2023-01-12T14:36:08.140Z,93.25
2023-01-12T14:38:14.420Z,93.96
2023-01-12T14:40:30.680Z,93.42
2023-01-12T14:42:50.998Z,93.27
2023-01-12T14:45:13.215Z,93.66
2023-01-12T14:47:25.502Z,93.74
2023-01-12T14:49:29.730Z,93.56
2023-01-12T14:51:35.470Z,92.99
2023-01-12T14:53:40.796Z,93.32
2023-01-12T14:55:44.850Z,93.39
2023-01-12T14:57:53.247Z,93.61
2023-01-12T14:59:56.330Z,93.23
2023-01-12T15:02:29.685Z,93.48
2023-01-12T15:04:32.439Z,93.54
2023-01-12T15:06:40.230Z,93.83
2023-01-12T15:08:54.451Z,94.37
2023-01-12T15:11:00.496Z,94.17
2023-01-12T15:13:26.108Z,94.48
2023-01-12T15:15:52.017Z,94.45
2023-01-12T15:18:13.837Z,94.83
2023-01-12T15:20:34.356Z,95.10
2023-01-12T15:22:54.696Z,95.39
2023-01-12T15:25:15.044Z,95.90
2023-01-12T15:27:20.652Z,95.54
2023-01-12T15:29:23.372Z,95.99
2023-01-12T15:31:29.029Z,96.69
2023-01-12T15:33:32.024Z,95.71
2023-01-12T15:35:35.316Z,95.58
2023-01-12T15:37:37.879Z,96.11
2023-01-12T15:39:40.474Z,96.28
2023-01-12T15:42:09.361Z,96.20
2023-01-12T15:44:15.137Z,97.31
2023-01-12T15:46:20.348Z,97.34
2023-01-12T15:48:23.084Z,96.98
2023-01-12T15:50:25.788Z,97.47
2023-01-12T15:52:32.694Z,97.37
2023-01-12T15:54:35.369Z,97.80
2023-01-12T15:56:38.041Z,97.39
2023-01-12T15:58:40.715Z,97.64
2023-01-12T16:00:45.645Z,98.03
2023-01-12T16:02:49.733Z,97.23
2023-01-12T16:04:52.512Z,97.35
2023-01-12T16:06:55.742Z,97.24
2023-01-12T16:08:58.480Z,97.30
2023-01-12T16:11:11.912Z,97.54
2023-01-12T16:13:14.577Z,97.63
2023-01-12T16:15:20.040Z,96.97
2023-01-12T16:17:23.992Z,97.31
2023-01-12T16:19:28.269Z,96.69
2023-01-12T16:21:30.922Z,96.48
2023-01-12T16:23:34.144Z,97.00
2023-01-12T16:25:38.309Z,96.46
2023-01-12T16:27:41.254Z,96.03
2023-01-12T16:29:43.994Z,96.01
2023-01-12T16:31:46.921Z,96.11
2023-01-12T16:33:50.965Z,95.55
2023-01-12T16:35:56.103Z,95.85
2023-01-12T16:37:58.772Z,95.56
2023-01-12T16:40:02.194Z,95.51
2023-01-12T16:42:04.997Z,95.70
2023-01-12T16:44:07.695Z,95.38
2023-01-12T16:46:12.305Z,94.66
2023-01-12T16:48:15.167Z,94.74
2023-01-12T16:50:19.112Z,94.92
2023-01-12T16:52:22.830Z,94.52
2023-01-12T16:54:25.504Z,94.48
2023-01-12T16:56:28.090Z,94.78
2023-01-12T16:58:30.701Z,94.73
2023-01-12T17:00:34.393Z,94.00
2023-01-12T17:02:37.296Z,94.10
2023-01-12T17:04:42.118Z,94.64
2023-01-12T17:06:47.974Z,93.90
2023-01-12T17:08:51.056Z,94.00
2023-01-12T17:10:53.782Z,94.18
2023-01-12T17:12:59.193Z,94.60
2023-01-12T17:15:03.381Z,93.66
2023-01-12T17:17:08.233Z,93.45
2023-01-12T17:19:11.084Z,92.75
2023-01-12T17:21:15.138Z,92.68
2023-01-12T17:23:19.313Z,92.23
2023-01-12T17:25:22.139Z,92.07
2023-01-12T17:27:25.333Z,92.11
2023-01-12T17:29:29.008Z,92.43
2023-01-12T17:31:32.316Z,92.28
2023-01-12T17:33:35.044Z,91.61
2023-01-12T17:35:38.116Z,91.70
2023-01-12T17:37:40.777Z,91.31
2023-01-12T17:39:44.765Z,90.66
2023-01-12T17:42:05.098Z,90.96
2023-01-12T17:44:08.748Z,90.42
2023-01-12T17:46:18.988Z,90.92
2023-01-12T17:48:21.743Z,90.33
2023-01-12T17:50:24.396Z,90.37
2023-01-12T17:52:27.260Z,90.52
2023-01-12T17:54:30.063Z,90.51
2023-01-12T17:56:35.456Z,89.99
2023-01-12T17:58:38.319Z,89.95
2023-01-12T18:00:41.271Z,90.49
2023-01-12T18:02:44.175Z,89.71
2023-01-12T18:04:47.197Z,89.62
2023-01-12T18:06:50.288Z,89.31
2023-01-12T18:08:53.242Z,88.93
2023-01-12T18:10:56.004Z,88.86
2023-01-12T18:13:00.013Z,88.82
2023-01-12T18:15:02.717Z,88.50
2023-01-12T18:17:05.702Z,88.09
2023-01-12T18:19:10.298Z,88.74
2023-01-12T18:21:15.857Z,88.50
2023-01-12T18:23:18.620Z,88.73
2023-01-12T18:25:21.373Z,88.57
2023-01-12T18:27:25.548Z,88.15
2023-01-12T18:29:29.941Z,88.58
2023-01-12T18:31:37.215Z,88.98
2023-01-12T18:33:39.995Z,89.02
2023-01-12T18:35:42.773Z,88.57
2023-01-12T18:37:47.201Z,87.68
2023-01-12T18:39:50.034Z,87.63
2023-01-12T18:42:10.365Z,87.94
2023-01-12T18:44:13.014Z,87.73
2023-01-12T18:46:17.221Z,87.77
2023-01-12T18:48:23.611Z,87.83
2023-01-12T18:50:43.767Z,87.81
2023-01-12T18:53:04.172Z,87.43
2023-01-12T18:55:07.815Z,87.23
2023-01-12T18:57:10.840Z,87.08
2023-01-12T18:59:13.492Z,87.08
2023-01-12T19:01:21.511Z,86.71
2023-01-12T19:03:24.201Z,86.43
2023-01-12T19:05:34.791Z,86.81
2023-01-12T19:07:51.191Z,86.12
2023-01-12T19:09:53.004Z,86.03
2023-01-12T19:11:55.734Z,86.44
2023-01-12T19:14:16.202Z,86.72
2023-01-12T19:16:37.807Z,86.44
2023-01-12T19:18:40.729Z,86.20
2023-01-12T19:20:43.430Z,85.32
2023-01-12T19:23:03.714Z,85.67
2023-01-12T19:25:24.583Z,85.49
2023-01-12T19:27:44.977Z,85.47
2023-01-12T19:29:48.200Z,85.04
2023-01-12T19:31:52.176Z,84.63
2023-01-12T19:33:54.868Z,85.00
2023-01-12T19:35:57.519Z,85.28
2023-01-12T19:38:00.133Z,84.50
2023-01-12T19:40:06.949Z,84.77
2023-01-12T19:42:27.387Z,83.97
2023-01-12T19:44:30.109Z,84.76
2023-01-12T19:46:33.144Z,84.78
2023-01-12T19:48:37.549Z,85.04
2023-01-12T19:50:43.079Z,84.53
2023-01-12T19:52:45.959Z,84.16
2023-01-12T19:54:48.563Z,84.64
2023-01-12T19:56:51.304Z,84.80
2023-01-12T19:58:54.186Z,84.67
2023-01-12T20:00:57.515Z,84.89
2023-01-12T20:03:00.428Z,84.04
2023-01-12T20:05:04.566Z,84.26
2023-01-12T20:07:08.406Z,84.37
2023-01-12T20:09:11.672Z,84.47
2023-01-12T20:11:15.447Z,84.20
2023-01-12T20:13:18.130Z,83.75
2023-01-12T20:15:21.625Z,83.95
2023-01-12T20:17:24.556Z,83.63
2023-01-12T20:19:27.196Z,83.94
2023-01-12T20:21:31.176Z,83.82
2023-01-12T20:23:33.871Z,83.77
2023-01-12T20:25:36.573Z,83.61
2023-01-12T20:27:40.188Z,84.02
2023-01-12T20:29:42.903Z,84.55
2023-01-12T20:31:46.308Z,85.13
2023-01-12T20:33:49.014Z,84.84
2023-01-12T20:35:53.563Z,84.46
2023-01-12T20:37:57.533Z,84.86
2023-01-12T20:40:00.280Z,84.70
2023-01-12T20:42:03.432Z,85.05
2023-01-12T20:44:06.786Z,85.15
2023-01-12T20:46:10.218Z,85.18
2023-01-12T20:48:14.801Z,85.31
2023-01-12T20:50:18.740Z,85.28
2023-01-12T20:52:21.618Z,85.21
2023-01-12T20:54:25.740Z,85.23
2023-01-12T20:56:28.496Z,85.22
2023-01-12T20:58:31.214Z,85.31
2023-01-12T21:00:33.996Z,85.08
2023-01-12T21:02:36.755Z,85.40
2023-01-12T21:04:39.421Z,85.37
2023-01-12T21:06:43.362Z,85.79
2023-01-12T21:08:47.760Z,85.96
2023-01-12T21:10:54.078Z,85.32
2023-01-12T21:12:56.737Z,85.52
2023-01-12T21:14:59.433Z,85.62
2023-01-12T21:17:03.090Z,85.48
2023-01-12T21:19:05.787Z,86.12
2023-01-12T21:21:08.831Z,85.76
2023-01-12T21:23:11.809Z,85.64
2023-01-12T21:25:14.417Z,85.48
2023-01-12T21:27:18.492Z,85.44
2023-01-12T21:29:21.192Z,85.83
2023-01-12T21:31:23.929Z,85.56
2023-01-12T21:33:26.611Z,85.76
2023-01-12T21:35:29.282Z,85.58
2023-01-12T21:37:31.897Z,85.96
2023-01-12T21:39:34.535Z,85.79
2023-01-12T21:42:01.913Z,86.26
2023-01-12T21:44:05.008Z,86.20
2023-01-12T21:46:10.585Z,86.38
2023-01-12T21:48:15.417Z,86.27
2023-01-12T21:50:18.319Z,86.57
2023-01-12T21:52:21.007Z,86.47
2023-01-12T21:54:23.702Z,86.97
2023-01-12T21:56:26.831Z,86.74
2023-01-12T21:58:31.352Z,86.54
2023-01-12T22:00:35.641Z,86.57
2023-01-12T22:02:38.284Z,87.15
2023-01-12T22:04:40.854Z,86.82
2023-01-12T22:06:43.474Z,86.94
2023-01-12T22:08:46.114Z,86.83
2023-01-12T22:10:48.872Z,86.78
2023-01-12T22:12:54.131Z,86.18
2023-01-12T22:14:56.801Z,85.99
2023-01-12T22:17:00.822Z,85.86
2023-01-12T22:19:03.754Z,85.84
2023-01-12T22:21:07.962Z,85.68
2023-01-12T22:23:13.256Z,86.30
2023-01-12T22:25:17.345Z,86.61
2023-01-12T22:27:20.331Z,86.38
2023-01-12T22:29:23.013Z,86.23
2023-01-12T22:31:26.110Z,85.79
2023-01-12T22:33:30.065Z,85.66
2023-01-12T22:35:32.750Z,85.51
2023-01-12T22:37:37.409Z,85.42
2023-01-12T22:39:40.033Z,85.78
2023-01-12T22:41:42.882Z,85.35
2023-01-12T22:43:45.681Z,84.82
2023-01-12T22:45:50.589Z,85.24
2023-01-12T22:47:53.763Z,84.68
2023-01-12T22:49:57.877Z,85.09
2023-01-12T22:52:00.603Z,84.73
2023-01-12T22:54:03.385Z,84.58
2023-01-12T22:56:06.885Z,84.02
2023-01-12T22:58:09.591Z,84.10
2023-01-12T23:00:13.437Z,84.55
2023-01-12T23:02:30.419Z,84.03
2023-01-12T23:04:33.129Z,84.39
2023-01-12T23:06:38.462Z,84.32
2023-01-12T23:08:41.172Z,83.54
2023-01-12T23:10:45.036Z,83.89
2023-01-12T23:13:07.615Z,84.11
2023-01-12T23:15:10.966Z,84.39
2023-01-12T23:17:13.652Z,83.91
2023-01-12T23:19:16.283Z,83.77
2023-01-12T23:21:21.274Z,83.93
2023-01-12T23:23:25.236Z,84.16
2023-01-12T23:25:28.154Z,84.71
2023-01-12T23:27:33.560Z,84.68
2023-01-12T23:29:36.809Z,84.39
2023-01-12T23:31:39.512Z,84.75
2023-01-12T23:33:43.553Z,84.53
2023-01-12T23:35:46.215Z,85.00
2023-01-12T23:37:48.795Z,84.43
2023-01-12T23:39:52.731Z,84.50
2023-01-12T23:41:55.375Z,84.13
2023-01-12T23:43:59.798Z,84.23
2023-01-12T23:46:02.453Z,84.17
2023-01-12T23:48:07.710Z,84.34
2023-01-12T23:50:12.068Z,83.64
2023-01-12T23:52:17.002Z,84.12
2023-01-12T23:54:19.619Z,83.77
2023-01-12T23:56:23.623Z,83.92
2023-01-12T23:58:26.311Z,84.10
